Time;durP1;ratioP1;P1;durP2;ratioP2;P2;SDS_P1;SDS_P2;PMS_P1;PMS_P2;Temp;Humidity;BMP_temperature;BMP_pressure;BME280_temperature;BME280_humidity;BME280_pressure;Samples;Min_cycle;Max_cycle;Signal;HPM_P1;HPM_P2
2021/12/13 00:02:34;;;;;;;0.60;0.60;;;;;;;8.78;93.48;102000.09;5212035;28;20042;-87
2021/12/13 00:05:17;;;;;;;0.50;0.50;;;;;;;8.76;92.96;102001.84;5171915;28;20394;-88
2021/12/13 00:07:58;;;;;;;0.55;0.55;;;;;;;8.68;93.41;102001.84;5151927;28;20030;-88
2021/12/13 00:10:34;;;;;;;0.60;0.60;;;;;;;8.61;93.22;102003.56;5164032;28;20046;-88
2021/12/13 00:13:10;;;;;;;0.52;0.52;;;;;;;8.63;93.58;101995.72;5165690;28;20554;-87
2021/12/13 00:15:49;;;;;;;0.45;0.45;;;;;;;8.59;93.24;101988.72;5185854;28;20041;-88
2021/12/13 00:18:28;;;;;;;0.50;0.50;;;;;;;8.71;92.78;101994.00;5148192;28;20034;-87
2021/12/13 00:21:08;;;;;;;0.60;0.60;;;;;;;8.61;92.77;101992.22;5164019;28;20042;-88
2021/12/13 00:24:00;;;;;;;2.70;1.38;;;;;;;8.60;92.98;102001.81;5146034;28;20396;-88
2021/12/13 00:26:35;;;;;;;0.50;0.50;;;;;;;8.52;92.77;102000.91;5148604;28;20459;-87
2021/12/13 00:29:11;;;;;;;0.50;0.50;;;;;;;8.56;92.51;102000.06;5130488;28;20108;-88
2021/12/13 00:32:01;;;;;;;0.70;0.70;;;;;;;8.62;92.58;101992.22;5142608;28;20038;-87
2021/12/13 00:34:50;;;;;;;0.68;0.68;;;;;;;8.57;92.34;101996.59;5160930;28;20038;-88
2021/12/13 00:37:35;;;;;;;0.77;0.77;;;;;;;8.57;92.42;101990.47;5181572;28;20033;-88
2021/12/13 00:40:12;;;;;;;0.60;0.60;;;;;;;8.56;91.98;102001.78;5151084;28;20467;-88
2021/12/13 00:42:49;;;;;;;1.25;0.98;;;;;;;8.54;91.93;102003.56;5141360;28;20038;-87
2021/12/13 00:45:25;;;;;;;0.75;0.75;;;;;;;8.48;91.95;102002.66;5167866;28;20039;-88
2021/12/13 00:47:56;;;;;;;0.50;0.50;;;;;;;8.49;92.12;102008.78;5159428;28;20065;-87
2021/12/13 00:50:44;;;;;;;0.77;0.77;;;;;;;8.54;91.59;102008.78;5147787;28;20053;-88
2021/12/13 00:53:21;;;;;;;0.40;0.40;;;;;;;8.49;91.48;102004.41;5176161;28;20440;-87
2021/12/13 00:55:52;;;;;;;0.40;0.40;;;;;;;8.52;91.22;102007.91;5139516;28;20034;-88
2021/12/13 00:58:23;;;;;;;0.60;0.60;;;;;;;8.58;91.35;102008.81;5157784;28;20026;-87
2021/12/13 01:01:10;;;;;;;0.80;0.77;;;;;;;8.50;91.29;102007.91;5147557;28;20045;-88
2021/12/13 01:03:47;;;;;;;1.08;1.08;;;;;;;8.49;91.11;102004.41;5164842;28;20088;-88
2021/12/13 01:07:12;;;;;;;0.85;0.85;;;;;;;8.39;91.72;102006.97;5146007;28;20038;-87
2021/12/13 01:09:51;;;;;;;0.50;0.50;;;;;;;8.49;91.14;102007.03;5088777;28;20047;-87
2021/12/13 01:12:23;;;;;;;1.67;1.58;;;;;;;8.47;90.90;102010.50;5166216;28;20022;-88
2021/12/13 01:15:09;;;;;;;0.40;0.40;;;;;;;8.42;91.17;102013.06;5153787;28;20080;-87
2021/12/13 01:18:59;;;;;;;0.82;0.82;;;;;;;8.39;91.33;102017.44;5131187;28;20038;-87
2021/12/13 01:21:11;;;;;;;0.80;0.80;;;;;;;8.43;91.28;102014.81;5146779;28;20042;-88
2021/12/13 01:23:51;;;;;;;0.40;0.40;;;;;;;8.42;90.88;102015.69;5148763;28;20042;-87
2021/12/13 01:26:37;;;;;;;0.40;0.40;;;;;;;8.38;91.13;102015.69;5159211;28;20059;-88
2021/12/13 01:29:21;;;;;;;0.52;0.52;;;;;;;8.43;91.12;102014.81;5164507;28;20037;-88
2021/12/13 01:31:59;;;;;;;0.40;0.40;;;;;;;8.43;90.61;102016.59;5142958;28;20034;-88
2021/12/13 01:34:32;;;;;;;0.60;0.60;;;;;;;8.49;90.88;102009.63;5161713;28;20030;-88
2021/12/13 01:37:17;;;;;;;0.40;0.40;;;;;;;8.43;90.70;102017.44;5164928;28;20030;-88
2021/12/13 01:39:52;;;;;;;0.65;0.65;;;;;;;8.58;90.20;102021.00;5152686;28;20073;-87
2021/12/13 01:42:29;;;;;;;0.50;0.50;;;;;;;8.57;90.35;102017.53;5175979;28;20140;-88
2021/12/13 01:45:08;;;;;;;1.25;1.15;;;;;;;8.52;90.24;102020.97;5174875;28;20074;-87
2021/12/13 01:47:45;;;;;;;0.50;0.50;;;;;;;8.52;90.34;102013.13;5170037;28;20042;-88
2021/12/13 01:50:24;;;;;;;0.60;0.60;;;;;;;8.46;90.50;102027.03;5152102;28;20046;-87
2021/12/13 01:52:57;;;;;;;0.50;0.50;;;;;;;8.47;90.51;102027.06;5162937;28;20038;-88
2021/12/13 01:55:37;;;;;;;0.80;0.80;;;;;;;8.45;90.42;102027.91;5165835;28;20049;-88
2021/12/13 01:58:35;;;;;;;0.40;0.40;;;;;;;8.47;89.95;102032.28;5165887;28;20026;-88
2021/12/13 02:01:19;;;;;;;0.50;0.50;;;;;;;8.42;90.10;102034.00;5165110;28;20038;-87
2021/12/13 02:03:55;;;;;;;;;;;;;;;8.43;90.33;102029.66;5165719;28;20038;-88
2021/12/13 02:06:42;;;;;;;0.43;0.43;;;;;;;8.52;90.09;102036.69;5153046;28;19923;-87
2021/12/13 02:09:16;;;;;;;0.98;0.85;;;;;;;8.43;90.33;102048.84;5166492;28;20395;-87
2021/12/13 02:11:50;;;;;;;0.40;0.40;;;;;;;8.48;89.79;102044.50;5148671;28;20224;-87
2021/12/13 02:14:27;;;;;;;0.95;0.95;;;;;;;8.43;90.22;102040.13;5130304;28;20427;-88
2021/12/13 02:17:12;;;;;;;0.40;0.40;;;;;;;8.41;90.47;102040.09;5149340;28;20332;-87
2021/12/13 02:19:45;;;;;;;1.30;1.25;;;;;;;8.43;89.86;102038.38;5166355;28;20038;-88
2021/12/13 02:22:21;;;;;;;0.63;0.63;;;;;;;8.41;90.00;102034.00;5163710;28;20030;-87
2021/12/13 02:24:54;;;;;;;0.50;0.50;;;;;;;8.40;89.75;102033.13;5148810;28;20041;-88
2021/12/13 02:27:29;;;;;;;2.08;1.40;;;;;;;8.43;89.95;102022.69;5141515;28;20077;-88
2021/12/13 02:30:23;;;;;;;0.65;0.65;;;;;;;8.51;89.74;102038.44;5180488;28;20451;-88
2021/12/13 02:32:54;;;;;;;0.60;0.60;;;;;;;8.41;89.40;102031.41;5130804;28;20130;-88
2021/12/13 02:35:29;;;;;;;0.70;0.70;;;;;;;8.52;89.73;102032.31;5135872;28;20277;-87
2021/12/13 02:38:02;;;;;;;0.63;0.63;;;;;;;8.38;89.36;102033.97;5150473;28;20457;-87
2021/12/13 02:40:33;;;;;;;0.40;0.40;;;;;;;8.53;89.46;102035.81;5149952;28;20103;-88
2021/12/13 02:43:07;;;;;;;0.50;0.50;;;;;;;8.45;89.27;102034.03;5146856;28;20034;-88
2021/12/13 02:45:43;;;;;;;0.93;0.93;;;;;;;8.46;89.63;102029.66;5186194;28;20169;-87
2021/12/13 02:48:35;;;;;;;0.63;0.63;;;;;;;8.48;89.23;102034.03;5154673;28;20399;-88
2021/12/13 02:51:11;;;;;;;0.50;0.50;;;;;;;8.48;89.85;102034.03;5150689;28;20487;-88
2021/12/13 02:53:45;;;;;;;0.40;0.40;;;;;;;8.48;89.29;102027.97;5184027;28;20366;-87
2021/12/13 02:56:20;;;;;;;0.47;0.47;;;;;;;8.46;89.15;102033.16;5166361;28;20257;-88
2021/12/13 02:58:52;;;;;;;2.72;1.15;;;;;;;8.50;89.19;102032.31;5155020;28;20037;-87
2021/12/13 03:01:28;;;;;;;0.52;0.52;;;;;;;8.48;89.40;102034.03;5151827;28;20049;-88
2021/12/13 03:04:03;;;;;;;1.40;1.30;;;;;;;8.46;88.94;102030.53;5164778;28;20580;-88
2021/12/13 03:06:40;;;;;;;0.47;0.47;;;;;;;8.43;89.26;102025.28;5166470;28;20049;-88
2021/12/13 03:09:16;;;;;;;0.50;0.50;;;;;;;8.48;89.16;102028.81;5172041;28;20042;-88
2021/12/13 03:11:49;;;;;;;0.50;0.50;;;;;;;8.47;89.45;102041.91;5151279;28;20030;-87
2021/12/13 03:14:30;;;;;;;1.23;1.17;;;;;;;8.53;89.02;102041.06;5168493;28;20389;-87
2021/12/13 03:17:13;;;;;;;0.40;0.40;;;;;;;8.50;88.77;102047.16;5152294;28;20052;-88
2021/12/13 03:19:52;;;;;;;0.80;0.80;;;;;;;8.50;88.59;102045.41;5169540;28;20497;-89
2021/12/13 03:23:00;;;;;;;0.60;0.60;;;;;;;8.50;88.85;102050.63;5155716;28;20045;-87
2021/12/13 03:25:52;;;;;;;0.50;0.50;;;;;;;8.45;89.12;102051.44;5155071;28;20073;-88
2021/12/13 03:29:04;;;;;;;0.70;0.70;;;;;;;8.45;89.31;102047.09;5167027;28;20072;-88
2021/12/13 03:31:43;;;;;;;0.40;0.40;;;;;;;8.45;89.23;102044.50;5181448;28;20053;-87
2021/12/13 03:34:26;;;;;;;0.90;0.90;;;;;;;8.43;89.03;102051.44;5151114;28;20053;-87
2021/12/13 03:37:06;;;;;;;0.73;0.73;;;;;;;8.40;89.26;102046.19;5205276;28;20022;-88
2021/12/13 03:39:44;;;;;;;0.70;0.70;;;;;;;8.55;89.29;102049.78;5194358;28;20026;-87
2021/12/13 03:42:23;;;;;;;0.50;0.50;;;;;;;8.55;88.70;102052.41;5190890;28;20056;-88
2021/12/13 03:44:56;;;;;;;0.50;0.50;;;;;;;8.53;88.75;102054.13;5184544;28;20046;-87
2021/12/13 03:47:35;;;;;;;0.40;0.40;;;;;;;8.51;88.94;102059.38;5175293;28;20030;-88
2021/12/13 03:50:12;;;;;;;0.85;0.85;;;;;;;8.47;89.14;102054.97;5162715;28;20050;-88
2021/12/13 03:52:46;;;;;;;0.77;0.77;;;;;;;8.52;88.68;102055.00;5163270;28;20102;-87
2021/12/13 03:55:19;;;;;;;1.15;1.15;;;;;;;8.58;89.00;102061.13;5152936;28;20147;-88
2021/12/13 03:57:54;;;;;;;3.78;2.28;;;;;;;8.44;88.96;102063.66;5165003;28;20031;-88
2021/12/13 04:00:29;;;;;;;0.60;0.60;;;;;;;8.46;89.06;102067.16;5129481;28;20417;-88
2021/12/13 04:03:03;;;;;;;0.50;0.50;;;;;;;8.48;88.76;102065.44;5154040;28;20477;-88
2021/12/13 04:05:35;;;;;;;0.68;0.68;;;;;;;8.52;88.92;102061.09;5149758;28;20053;-88
2021/12/13 04:08:09;;;;;;;1.30;1.23;;;;;;;8.48;89.17;102061.97;5154898;28;20030;-88
2021/12/13 04:10:44;;;;;;;0.80;0.80;;;;;;;8.48;88.84;102075.91;5186802;28;20157;-88
2021/12/13 04:13:17;;;;;;;8.45;3.33;;;;;;;8.48;88.63;102073.28;5145070;28;20030;-88
2021/12/13 04:16:17;;;;;;;1.00;1.00;;;;;;;8.53;89.13;102073.31;5184390;28;20571;-88
2021/12/13 04:21:39;;;;;;;0.90;0.88;;;;;;;8.47;88.76;102076.75;5171826;28;20044;-87
2021/12/13 04:24:21;;;;;;;0.70;0.70;;;;;;;8.49;88.80;102063.72;5171741;28;20052;-87
2021/12/13 04:27:03;;;;;;;0.88;0.88;;;;;;;8.56;88.38;102077.66;5145883;28;20043;-88
2021/12/13 04:29:38;;;;;;;0.80;0.80;;;;;;;8.50;88.94;102068.94;5184714;28;20092;-88
2021/12/13 04:32:18;;;;;;;0.88;0.88;;;;;;;8.50;89.00;102068.94;5182478;28;20022;-87
2021/12/13 04:34:55;;;;;;;1.25;0.77;;;;;;;8.55;89.09;102063.72;5155126;28;20430;-88
2021/12/13 04:37:42;;;;;;;1.75;1.58;;;;;;;8.46;88.52;102069.78;5169603;28;20392;-87
2021/12/13 04:40:40;;;;;;;0.47;0.47;;;;;;;8.50;88.39;102076.78;5180601;28;20103;-88
2021/12/13 04:43:16;;;;;;;0.70;0.70;;;;;;;8.61;88.56;102068.97;5162588;28;20042;-87
2021/12/13 04:45:52;;;;;;;0.80;0.80;;;;;;;8.53;88.68;102061.97;5167004;28;20042;-87
2021/12/13 04:48:31;;;;;;;0.80;0.80;;;;;;;8.53;88.52;102072.44;5168894;28;20031;-88
2021/12/13 04:51:09;;;;;;;0.80;0.80;;;;;;;8.56;88.88;102068.09;5162746;28;20042;-88
2021/12/13 04:53:47;;;;;;;1.40;1.40;;;;;;;8.56;88.21;102070.69;5149093;28;20040;-88
2021/12/13 04:56:25;;;;;;;0.57;0.57;;;;;;;8.68;88.42;102072.47;5150622;28;20045;-87
2021/12/13 04:58:59;;;;;;;0.57;0.57;;;;;;;8.69;88.30;102069.00;5148387;28;20101;-88
2021/12/13 05:01:30;;;;;;;0.70;0.70;;;;;;;8.69;87.67;102079.47;5160349;28;20408;-88
2021/12/13 05:04:03;;;;;;;0.60;0.60;;;;;;;8.62;87.81;102068.09;5170740;28;20038;-88
2021/12/13 05:06:37;;;;;;;0.50;0.50;;;;;;;8.49;88.11;102072.41;5165598;28;20073;-88
2021/12/13 05:09:11;;;;;;;0.88;0.88;;;;;;;8.60;87.93;102059.38;5150281;28;20338;-88
2021/12/13 05:11:51;;;;;;;1.40;1.05;;;;;;;8.53;87.84;102062.84;5139073;28;20468;-89
2021/12/13 05:14:39;;;;;;;0.85;0.85;;;;;;;8.61;87.50;102071.56;5180868;28;20491;-90
2021/12/13 05:17:13;;;;;;;1.90;1.80;;;;;;;8.62;87.29;102067.25;5152110;28;20298;-89
2021/12/13 05:19:49;;;;;;;0.50;0.50;;;;;;;8.55;87.85;102071.56;5162099;28;20045;-90
2021/12/13 05:22:22;;;;;;;0.98;0.93;;;;;;;8.56;87.59;102070.69;5167537;28;20534;-88
2021/12/13 05:24:57;;;;;;;0.70;0.70;;;;;;;8.54;87.34;102063.72;5167739;28;20764;-88
2021/12/13 05:27:56;;;;;;;0.43;0.43;;;;;;;8.53;87.72;102072.44;5169274;28;20038;-88
2021/12/13 05:30:27;;;;;;;4.55;1.67;;;;;;;8.60;87.57;102069.81;5145170;28;20038;-88
2021/12/13 05:33:04;;;;;;;3.58;2.10;;;;;;;8.59;87.36;102073.34;5160074;28;20026;-87
2021/12/13 05:35:42;;;;;;;0.93;0.93;;;;;;;8.74;87.82;102082.94;5131481;28;20065;-87
2021/12/13 05:38:28;;;;;;;0.40;0.40;;;;;;;8.63;87.05;102072.47;5146365;28;20026;-88
2021/12/13 05:41:01;;;;;;;0.95;0.95;;;;;;;8.62;87.12;102080.31;5158719;28;20042;-88
2021/12/13 05:43:45;;;;;;;;;;;;;;;8.71;87.68;102087.31;5167493;28;20471;-88
2021/12/13 05:46:19;;;;;;;0.50;0.50;;;;;;;8.75;87.75;102079.47;5149546;28;20390;-89
2021/12/13 05:49:00;;;;;;;0.60;0.60;;;;;;;8.66;87.53;102080.34;5134342;28;20038;-89
2021/12/13 05:51:34;;;;;;;0.35;0.35;;;;;;;8.77;87.69;102077.75;5128045;28;20034;-88
2021/12/13 05:54:07;;;;;;;0.95;0.95;;;;;;;8.81;87.50;102086.47;5148690;28;20573;-89
2021/12/13 05:56:40;;;;;;;0.60;0.60;;;;;;;8.78;87.28;102092.56;5159641;28;20126;-89
2021/12/13 05:59:13;;;;;;;0.73;0.73;;;;;;;8.69;86.83;102095.16;5150556;28;20351;-88
2021/12/13 06:02:17;;;;;;;0.43;0.43;;;;;;;8.69;87.26;102095.16;5144760;28;20524;-89
2021/12/13 06:05:06;;;;;;;3.78;1.42;;;;;;;8.69;86.71;102089.94;5175934;28;20113;-89
2021/12/13 06:07:40;;;;;;;0.82;0.77;;;;;;;8.69;86.01;102094.28;5175809;28;20042;-90
2021/12/13 06:10:13;;;;;;;0.60;0.60;;;;;;;8.68;87.00;102093.41;5147753;28;20042;-89
2021/12/13 06:12:50;;;;;;;;;;;;;;;8.79;86.58;102093.44;5156312;28;20236;-89
2021/12/13 06:15:42;;;;;;;1.23;1.00;;;;;;;8.80;86.74;102103.03;5132252;28;19928;-89
2021/12/13 06:18:16;;;;;;;0.70;0.70;;;;;;;8.77;87.08;102093.44;5179220;28;20022;-89
2021/12/13 06:21:02;;;;;;;0.73;0.73;;;;;;;8.87;87.49;102103.94;5164269;28;20559;-88
2021/12/13 06:23:36;;;;;;;0.40;0.40;;;;;;;8.88;86.79;102106.53;5152475;28;20175;-88
2021/12/13 06:26:10;;;;;;;0.40;0.40;;;;;;;8.77;86.64;102101.28;5172954;28;20438;-89
2021/12/13 06:28:53;;;;;;;2.83;1.38;;;;;;;8.71;86.70;102098.66;5130034;28;20030;-89
2021/12/13 06:31:40;;;;;;;0.50;0.50;;;;;;;8.84;86.59;102093.44;5146381;28;20108;-88
2021/12/13 06:34:15;;;;;;;0.98;0.70;;;;;;;8.84;86.73;102101.31;5140194;28;20026;-88
2021/12/13 06:36:48;;;;;;;0.47;0.47;;;;;;;8.79;86.42;102096.94;5166812;28;20563;-88
2021/12/13 06:39:28;;;;;;;0.50;0.50;;;;;;;8.78;86.53;102099.53;5169777;28;20041;-89
2021/12/13 06:42:04;;;;;;;0.55;0.55;;;;;;;8.80;86.92;102093.44;5175639;28;20034;-89
2021/12/13 06:44:35;;;;;;;0.77;0.77;;;;;;;8.86;86.31;102092.56;5150023;28;20030;-89
2021/12/13 06:47:13;;;;;;;0.40;0.40;;;;;;;8.82;86.58;102096.94;5167603;28;20087;-89
2021/12/13 06:49:48;;;;;;;0.40;0.40;;;;;;;8.88;86.83;102106.53;5150097;28;20038;-89
2021/12/13 06:52:32;;;;;;;0.60;0.60;;;;;;;8.86;86.59;102107.41;5146953;28;20050;-88
2021/12/13 06:55:14;;;;;;;0.40;0.40;;;;;;;8.91;86.63;102108.28;5165662;28;20062;-88
2021/12/13 06:57:54;;;;;;;0.60;0.60;;;;;;;8.91;86.48;102106.56;5159346;28;20062;-89
2021/12/13 07:00:29;;;;;;;1.20;0.63;;;;;;;8.93;86.46;102110.03;5149269;28;20084;-88
2021/12/13 07:03:03;;;;;;;0.40;0.40;;;;;;;8.95;87.12;102104.81;5177578;28;20038;-88
2021/12/13 07:05:47;;;;;;;0.50;0.50;;;;;;;8.94;86.70;102109.16;5160953;28;20081;-88
2021/12/13 07:08:31;;;;;;;0.63;0.63;;;;;;;8.97;87.07;102113.53;5152824;28;20026;-88
2021/12/13 07:11:12;;;;;;;0.40;0.40;;;;;;;9.00;86.75;102113.53;5184695;28;20042;-88
2021/12/13 07:14:07;;;;;;;0.40;0.40;;;;;;;9.01;86.61;102117.91;5160179;28;20121;-89
2021/12/13 07:16:39;;;;;;;0.40;0.40;;;;;;;8.97;86.76;102113.53;5193049;28;20172;-89
2021/12/13 07:19:21;;;;;;;0.43;0.43;;;;;;;8.94;86.69;102116.16;5198723;28;20039;-88
2021/12/13 07:21:58;;;;;;;0.30;0.30;;;;;;;8.89;86.28;102120.50;5158379;28;20038;-88
2021/12/13 07:24:42;;;;;;;0.40;0.40;;;;;;;8.95;86.46;102125.75;5150578;28;20512;-88
2021/12/13 07:27:20;;;;;;;0.47;0.47;;;;;;;9.02;86.73;102127.53;5185666;28;20041;-88
2021/12/13 07:29:55;;;;;;;0.60;0.60;;;;;;;9.00;86.17;102126.63;5130368;28;20365;-89
2021/12/13 07:32:32;;;;;;;0.40;0.40;;;;;;;8.96;86.43;102133.63;5163936;28;20030;-87
2021/12/13 07:35:20;;;;;;;0.50;0.50;;;;;;;8.98;85.96;102128.38;5148042;28;20526;-88
2021/12/13 07:37:58;;;;;;;0.47;0.47;;;;;;;8.96;85.31;102130.13;5134874;28;20342;-89
2021/12/13 07:40:59;;;;;;;0.40;0.40;;;;;;;8.96;86.03;102131.00;5164802;28;20050;-88
2021/12/13 07:43:31;;;;;;;0.50;0.50;;;;;;;9.03;86.57;102131.91;5146378;28;20042;-89
2021/12/13 07:46:11;;;;;;;0.40;0.40;;;;;;;9.00;84.98;102133.63;5167071;28;20448;-89
2021/12/13 07:48:41;;;;;;;0.35;0.35;;;;;;;8.93;85.84;102124.88;5180130;28;20358;-88
2021/12/13 07:51:35;;;;;;;0.40;0.40;;;;;;;9.01;86.01;102138.88;5161905;28;20062;-88
2021/12/13 07:54:11;;;;;;;0.40;0.40;;;;;;;8.95;86.36;102139.72;5154991;28;20034;-89
2021/12/13 07:56:45;;;;;;;0.73;0.73;;;;;;;8.99;85.93;102151.06;5162584;28;20049;-88
2021/12/13 07:59:50;;;;;;;0.40;0.40;;;;;;;9.01;86.12;102153.72;5148526;28;20022;-88
2021/12/13 08:02:30;;;;;;;0.40;0.40;;;;;;;9.07;85.29;102159.81;5124518;28;20050;-89
2021/12/13 08:05:13;;;;;;;0.60;0.60;;;;;;;8.94;85.31;102161.53;5148697;28;20052;-89
2021/12/13 08:07:58;;;;;;;0.60;0.60;;;;;;;8.79;85.89;102162.38;5164109;28;20042;-89
2021/12/13 08:10:34;;;;;;;0.50;0.50;;;;;;;8.77;86.38;102171.06;5156003;28;20088;-89
2021/12/13 08:13:10;;;;;;;0.50;0.50;;;;;;;8.73;86.06;102179.78;5147446;28;20053;-89
2021/12/13 08:15:54;;;;;;;0.80;0.80;;;;;;;8.73;86.74;102185.88;5163390;28;20034;-88
2021/12/13 08:18:33;;;;;;;0.65;0.65;;;;;;;8.79;86.47;102196.41;5148632;28;20225;-89
2021/12/13 08:21:26;;;;;;;0.40;0.40;;;;;;;8.82;86.53;102199.00;5167084;28;20319;-88
2021/12/13 08:24:01;;;;;;;0.98;0.93;;;;;;;8.71;86.69;102198.09;5169264;28;20038;-89
2021/12/13 08:26:31;;;;;;;1.13;1.08;;;;;;;8.68;86.59;102195.47;5152777;28;20582;-89
2021/12/13 08:29:09;;;;;;;0.40;0.40;;;;;;;8.66;86.74;102194.56;5133678;28;20044;-89
2021/12/13 08:31:40;;;;;;;0.52;0.52;;;;;;;8.71;87.04;102195.50;5160435;28;20389;-88
2021/12/13 08:34:22;;;;;;;0.40;0.40;;;;;;;8.73;87.31;102195.47;5168481;28;20057;-89
2021/12/13 08:36:52;;;;;;;0.63;0.63;;;;;;;8.84;86.71;102192.91;5165367;28;20042;-89
2021/12/13 08:39:32;;;;;;;0.50;0.50;;;;;;;8.89;86.58;102196.41;5162123;28;20084;-89
2021/12/13 08:42:11;;;;;;;0.88;0.80;;;;;;;8.90;86.55;102199.03;5164239;28;20030;-88
2021/12/13 08:44:46;;;;;;;0.98;0.70;;;;;;;8.93;86.51;102199.03;5145066;28;20058;-89
2021/12/13 08:47:25;;;;;;;1.02;1.02;;;;;;;8.91;86.08;102199.91;5166755;28;20026;-89
2021/12/13 08:50:04;;;;;;;0.47;0.47;;;;;;;8.96;86.41;102203.44;5173562;28;20064;-88
2021/12/13 08:52:39;;;;;;;1.33;1.23;;;;;;;8.93;86.38;102192.94;5153451;28;20033;-89
2021/12/13 08:55:12;;;;;;;1.25;1.10;;;;;;;8.95;86.62;102191.22;5136056;28;20038;-89
2021/12/13 08:57:45;;;;;;;1.42;0.80;;;;;;;9.02;86.46;102187.75;5162315;28;20225;-88
2021/12/13 09:00:19;;;;;;;0.85;0.85;;;;;;;8.95;86.54;102185.97;5144420;28;20098;-89
2021/12/13 09:03:08;;;;;;;0.85;0.85;;;;;;;9.12;86.37;102189.53;5163010;28;20094;-89
2021/12/13 09:05:51;;;;;;;1.45;1.35;;;;;;;9.08;86.33;102200.84;5166337;28;20049;-89
2021/12/13 09:08:40;;;;;;;1.05;1.05;;;;;;;9.05;86.38;102197.34;5171766;28;20108;-89
2021/12/13 09:11:16;;;;;;;0.80;0.80;;;;;;;9.05;87.07;102192.09;5145321;28;20046;-88
2021/12/13 09:14:05;;;;;;;0.40;0.40;;;;;;;9.07;86.54;102196.47;5146542;28;20125;-89
2021/12/13 09:17:10;;;;;;;0.30;0.30;;;;;;;9.06;86.61;102194.72;5150295;28;20045;-88
2021/12/13 09:19:43;;;;;;;0.32;0.32;;;;;;;9.01;86.46;102190.38;5144796;28;20108;-88
2021/12/13 09:22:38;;;;;;;0.60;0.60;;;;;;;9.02;86.89;102200.81;5151760;28;20026;-89
2021/12/13 09:25:33;;;;;;;0.80;0.80;;;;;;;9.00;86.66;102199.94;5185567;28;20590;-88
2021/12/13 09:28:10;;;;;;;0.50;0.50;;;;;;;8.97;86.69;102195.56;5148051;28;20504;-86
2021/12/13 09:30:43;;;;;;;0.32;0.32;;;;;;;9.02;86.36;102203.44;5181714;28;20050;-87
2021/12/13 09:33:22;;;;;;;0.50;0.50;;;;;;;9.02;86.26;102207.78;5185386;28;20059;-87
2021/12/13 09:35:58;;;;;;;0.40;0.40;;;;;;;9.12;86.43;102214.81;5181597;28;20547;-87
2021/12/13 09:38:38;;;;;;;0.43;0.43;;;;;;;9.11;86.65;102218.28;5174673;28;20049;-88
2021/12/13 09:41:36;;;;;;;0.68;0.68;;;;;;;9.09;86.52;102215.69;5168069;28;20085;-87
2021/12/13 09:44:11;;;;;;;0.50;0.50;;;;;;;9.04;86.49;102211.31;5172985;28;20036;-88
2021/12/13 09:46:56;;;;;;;0.47;0.47;;;;;;;9.11;87.01;102206.09;5182165;28;20328;-87
2021/12/13 09:49:29;;;;;;;0.40;0.40;;;;;;;9.17;86.23;102220.06;5156928;28;20561;-87
2021/12/13 09:52:14;;;;;;;0.40;0.40;;;;;;;9.17;86.87;102227.94;5149947;28;20489;-88
2021/12/13 09:55:00;;;;;;;0.93;0.93;;;;;;;9.16;86.19;102227.06;5180936;28;20100;-87
2021/12/13 09:57:42;;;;;;;0.45;0.45;;;;;;;9.16;86.64;102223.56;5153896;28;20031;-88
2021/12/13 10:00:20;;;;;;;0.40;0.40;;;;;;;9.13;86.82;102219.19;5154247;28;20039;-88
2021/12/13 10:02:59;;;;;;;0.57;0.57;;;;;;;9.22;86.37;102221.84;5150945;28;20353;-88
2021/12/13 10:05:37;;;;;;;0.63;0.63;;;;;;;9.18;86.54;102221.81;5158654;28;20057;-88
2021/12/13 10:08:12;;;;;;;0.40;0.40;;;;;;;9.13;86.84;102221.81;5163263;28;20038;-88
2021/12/13 10:10:51;;;;;;;0.43;0.43;;;;;;;9.21;86.65;102219.22;5132497;28;20582;-87
2021/12/13 10:13:36;;;;;;;0.63;0.63;;;;;;;9.26;86.68;102214.84;5161990;28;20242;-88
2021/12/13 10:16:11;;;;;;;0.75;0.75;;;;;;;9.26;86.17;102214.84;5152569;28;20488;-87
2021/12/13 10:18:44;;;;;;;0.70;0.70;;;;;;;9.24;85.93;102219.22;5184363;28;20076;-88
2021/12/13 10:21:26;;;;;;;0.60;0.60;;;;;;;9.38;85.99;102203.53;5156550;28;20037;-87
2021/12/13 10:24:11;;;;;;;0.60;0.60;;;;;;;9.31;86.17;102210.50;5176595;28;20069;-88
2021/12/13 10:26:44;;;;;;;0.50;0.50;;;;;;;9.33;86.23;102211.38;5165436;28;20100;-87
2021/12/13 10:29:17;;;;;;;0.40;0.40;;;;;;;9.32;86.25;102214.88;5144258;28;20034;-88
2021/12/13 10:31:53;;;;;;;0.60;0.60;;;;;;;9.35;86.14;102217.50;5159788;28;20073;-88
2021/12/13 10:34:30;;;;;;;0.82;0.68;;;;;;;9.32;85.41;102216.63;5164425;28;20485;-88
2021/12/13 10:37:07;;;;;;;0.40;0.40;;;;;;;9.37;85.50;102212.25;5162628;28;20034;-88
2021/12/13 10:39:43;;;;;;;0.40;0.40;;;;;;;9.36;84.46;102202.66;5130491;28;20511;-88
2021/12/13 10:42:20;;;;;;;0.50;0.50;;;;;;;9.40;85.69;102207.03;5164710;28;20030;-88
2021/12/13 10:44:50;;;;;;;0.40;0.40;;;;;;;9.39;85.07;102200.91;5139479;28;20033;-88
2021/12/13 10:47:33;;;;;;;0.30;0.30;;;;;;;9.36;84.83;102205.25;5177340;28;20312;-88
2021/12/13 10:50:09;;;;;;;0.75;0.75;;;;;;;9.39;85.34;102207.91;5171741;28;20030;-87
2021/12/13 10:52:42;;;;;;;0.40;0.40;;;;;;;9.37;85.37;102204.41;5163554;28;20045;-88
2021/12/13 10:55:28;;;;;;;0.40;0.40;;;;;;;9.41;83.79;102211.41;5179997;28;20102;-89
2021/12/13 10:58:00;;;;;;;0.50;0.50;;;;;;;9.40;84.29;102210.50;5160520;28;20058;-88
2021/12/13 11:00:42;;;;;;;0.40;0.40;;;;;;;9.44;84.59;102200.91;5163972;28;20125;-89
2021/12/13 11:03:17;;;;;;;1.38;1.27;;;;;;;9.45;84.34;102202.66;5145967;28;20510;-89
2021/12/13 11:05:48;;;;;;;0.57;0.57;;;;;;;9.40;84.16;102200.03;5155482;28;20046;-88
2021/12/13 11:08:21;;;;;;;0.40;0.40;;;;;;;9.42;84.65;102200.91;5156122;28;20025;-88
2021/12/13 11:11:04;;;;;;;1.45;1.35;;;;;;;9.49;84.44;102203.53;5156237;28;20038;-88
2021/12/13 11:13:37;;;;;;;0.40;0.40;;;;;;;9.49;84.84;102203.53;5168966;28;20096;-88
2021/12/13 11:16:21;;;;;;;0.40;0.40;;;;;;;9.49;83.48;102201.81;5152755;28;20069;-88
2021/12/13 11:18:52;;;;;;;0.60;0.60;;;;;;;9.54;83.44;102202.69;5175760;28;20101;-88
2021/12/13 11:21:33;;;;;;;0.40;0.40;;;;;;;9.46;82.54;102201.78;5148964;28;20050;-88
2021/12/13 11:24:17;;;;;;;3.08;1.30;;;;;;;9.48;82.39;102201.78;5180479;28;20030;-88
2021/12/13 11:26:51;;;;;;;0.35;0.35;;;;;;;9.47;82.91;102200.94;5146202;28;20041;-89
2021/12/13 11:29:23;;;;;;;1.30;1.20;;;;;;;9.51;82.53;102204.41;5152272;28;20105;-89
2021/12/13 11:31:53;;;;;;;0.40;0.40;;;;;;;9.50;81.26;102200.06;5128524;28;20022;-88
2021/12/13 11:34:51;;;;;;;0.52;0.52;;;;;;;9.53;81.76;102202.69;5167082;28;20030;-88
2021/12/13 11:37:58;;;;;;;0.40;0.40;;;;;;;9.48;81.15;102207.03;5170687;28;20042;-88
2021/12/13 11:41:07;;;;;;;0.45;0.45;;;;;;;9.62;81.16;102202.69;5163012;28;20121;-89
2021/12/13 11:44:02;;;;;;;0.40;0.40;;;;;;;9.51;81.19;102199.19;5149007;28;20041;-89
2021/12/13 11:47:10;;;;;;;0.40;0.40;;;;;;;9.45;80.56;102208.78;5168055;28;20571;-89
2021/12/13 11:50:01;;;;;;;0.40;0.40;;;;;;;9.43;79.58;102204.41;5180143;28;20046;-88
2021/12/13 11:53:09;;;;;;;0.40;0.40;;;;;;;9.45;79.69;102200.94;5163344;28;20049;-89
2021/12/13 11:56:08;;;;;;;0.32;0.32;;;;;;;9.41;78.78;102207.03;5136395;28;20041;-89
2021/12/13 11:58:58;;;;;;;0.50;0.50;;;;;;;9.44;79.64;102198.28;5140464;28;20581;-88
2021/12/13 12:02:01;;;;;;;0.45;0.40;;;;;;;9.39;78.95;102198.28;5130624;28;20067;-88
2021/12/13 12:05:06;;;;;;;1.05;1.00;;;;;;;9.43;78.13;102202.66;5145452;28;20052;-89
2021/12/13 12:07:55;;;;;;;0.60;0.60;;;;;;;9.40;77.59;102200.03;5147841;28;20030;-89
2021/12/13 12:11:09;;;;;;;0.52;0.52;;;;;;;9.42;79.46;102200.91;5130458;28;20128;-89
2021/12/13 12:13:52;;;;;;;0.40;0.40;;;;;;;9.42;78.93;102197.44;5163283;28;20112;-89
2021/12/13 12:16:25;;;;;;;2.17;1.48;;;;;;;9.40;79.42;102194.78;5148530;28;20042;-89
2021/12/13 12:18:56;;;;;;;0.40;0.40;;;;;;;9.50;79.86;102190.47;5147077;28;20034;-90
2021/12/13 12:21:54;;;;;;;0.40;0.40;;;;;;;9.48;79.84;102191.31;5146343;28;20368;-90
2021/12/13 12:24:35;;;;;;;0.40;0.40;;;;;;;9.50;79.59;102187.84;5170632;28;20041;-90
2021/12/13 12:27:22;;;;;;;0.52;0.52;;;;;;;9.57;80.72;102193.94;5165146;28;20034;-89
2021/12/13 12:29:56;;;;;;;0.45;0.45;;;;;;;9.53;79.80;102190.44;5128931;28;20046;-90
2021/12/13 12:32:32;;;;;;;0.40;0.40;;;;;;;9.54;79.84;102188.72;5146905;28;20022;-89
2021/12/13 12:35:11;;;;;;;0.40;0.40;;;;;;;9.56;80.04;102187.84;5171415;28;20038;-90
2021/12/13 12:37:57;;;;;;;0.32;0.32;;;;;;;9.58;79.66;102175.63;5164293;28;20499;-89
2021/12/13 12:40:45;;;;;;;0.50;0.50;;;;;;;9.58;79.10;102179.97;5165872;28;20093;-89